Time;durP1;ratioP1;P1;durP2;ratioP2;P2;SDS_P1;SDS_P2;PMS_P1;PMS_P2;Temp;Humidity;BMP_temperature;BMP_pressure;BME280_temperature;BME280_humidity;BME280_pressure;Samples;Min_cycle;Max_cycle;Signal;HPM_P1;HPM_P2
2023/09/07 00:00:05;;;;;;;20.90;8.77;;;26.10;56.90;;;;;;351012;28;815;-56
2023/09/07 00:00:16;;;;;;;19.63;8.60;;;26.10;56.90;;;;;;350979;28;984;-56
2023/09/07 00:00:27;;;;;;;18.05;8.40;;;26.10;56.90;;;;;;350923;28;904;-56
2023/09/07 00:00:37;;;;;;;19.88;8.60;;;26.10;57.00;;;;;;351063;28;980;-56
2023/09/07 00:00:48;;;;;;;21.48;8.82;;;26.10;57.10;;;;;;350967;28;1027;-56
2023/09/07 00:01:00;;;;;;;22.65;9.10;;;26.10;57.00;;;;;;351029;28;1123;-56
2023/09/07 00:01:12;;;;;;;21.48;8.98;;;26.10;57.10;;;;;;351067;28;829;-56
2023/09/07 00:01:23;;;;;;;19.50;8.93;;;26.10;57.20;;;;;;350929;28;1114;-56
2023/09/07 00:01:34;;;;;;;16.87;8.50;;;26.10;57.10;;;;;;351038;28;936;-56
2023/09/07 00:01:44;;;;;;;18.08;8.10;;;26.10;57.10;;;;;;351004;28;1424;-56
2023/09/07 00:01:55;;;;;;;18.75;7.95;;;26.20;57.00;;;;;;351059;28;889;-56
2023/09/07 00:02:06;;;;;;;20.73;8.45;;;26.10;57.10;;;;;;350982;28;1181;-55
2023/09/07 00:02:16;;;;;;;23.20;8.77;;;26.20;57.10;;;;;;350986;28;1070;-55
2023/09/07 00:02:27;;;;;;;24.58;8.63;;;26.10;57.00;;;;;;351002;28;1016;-56
2023/09/07 00:02:38;;;;;;;24.60;8.50;;;26.10;57.00;;;;;;351025;28;1004;-57
2023/09/07 00:02:49;;;;;;;19.88;8.60;;;26.10;57.00;;;;;;351028;28;1059;-56
2023/09/07 00:03:00;;;;;;;20.25;8.73;;;26.10;57.00;;;;;;350988;28;1042;-56
2023/09/07 00:03:12;;;;;;;19.00;8.50;;;26.10;57.00;;;;;;350919;28;967;-56
2023/09/07 00:03:23;;;;;;;21.75;8.68;;;26.20;56.90;;;;;;350952;28;1174;-56
2023/09/07 00:03:34;;;;;;;20.73;8.63;;;26.10;57.00;;;;;;351055;28;952;-55
2023/09/07 00:03:44;;;;;;;21.67;8.60;;;26.10;56.90;;;;;;351017;28;869;-56
2023/09/07 00:03:55;;;;;;;20.38;8.30;;;26.10;56.90;;;;;;351004;28;895;-56
2023/09/07 00:04:06;;;;;;;19.65;8.18;;;26.20;56.90;;;;;;350984;28;1027;-56
2023/09/07 00:04:17;;;;;;;19.02;8.60;;;26.10;56.90;;;;;;350977;28;1103;-56
2023/09/07 00:04:27;;;;;;;19.57;8.90;;;26.20;56.90;;;;;;351001;28;1154;-56
2023/09/07 00:04:38;;;;;;;17.48;8.60;;;26.20;56.90;;;;;;351005;28;901;-56
2023/09/07 00:04:49;;;;;;;17.83;7.95;;;26.20;56.80;;;;;;350963;28;1442;-56
2023/09/07 00:05:00;;;;;;;18.35;7.90;;;26.10;56.80;;;;;;350950;28;1038;-56
2023/09/07 00:05:11;;;;;;;20.45;8.65;;;26.20;56.80;;;;;;350994;28;1008;-56
2023/09/07 00:05:21;;;;;;;22.27;8.93;;;26.20;56.80;;;;;;351005;28;955;-57
2023/09/07 00:05:32;;;;;;;21.38;9.60;;;26.20;56.80;;;;;;350868;28;1441;-55
2023/09/07 00:05:43;;;;;;;21.73;9.27;;;26.20;56.90;;;;;;351014;28;975;-55
2023/09/07 00:05:54;;;;;;;22.45;9.52;;;26.20;56.80;;;;;;351080;28;814;-56
2023/09/07 00:06:04;;;;;;;21.83;9.23;;;26.20;56.80;;;;;;350967;28;985;-56
2023/09/07 00:06:15;;;;;;;21.42;9.02;;;26.20;56.80;;;;;;351010;28;979;-56
2023/09/07 00:06:26;;;;;;;20.70;8.30;;;26.20;56.70;;;;;;351026;28;797;-55
2023/09/07 00:06:37;;;;;;;23.77;8.20;;;26.20;56.70;;;;;;350825;28;1127;-55
2023/09/07 00:06:49;;;;;;;23.90;7.75;;;26.20;56.60;;;;;;350915;28;971;-56
2023/09/07 00:07:00;;;;;;;19.70;7.70;;;26.20;56.60;;;;;;350856;28;1292;-56
2023/09/07 00:07:10;;;;;;;19.55;8.02;;;26.20;56.50;;;;;;350915;28;1005;-55
2023/09/07 00:07:21;;;;;;;19.40;8.20;;;26.20;56.40;;;;;;350868;28;999;-56
2023/09/07 00:07:32;;;;;;;20.60;8.27;;;26.20;56.50;;;;;;350866;28;1529;-55
2023/09/07 00:07:42;;;;;;;19.08;8.00;;;26.20;56.30;;;;;;350880;28;1009;-57
2023/09/07 00:07:53;;;;;;;17.17;7.60;;;26.20;56.20;;;;;;350933;28;996;-56
2023/09/07 00:08:04;;;;;;;14.70;7.47;;;26.20;56.20;;;;;;350914;28;1079;-58
2023/09/07 00:08:15;;;;;;;15.15;7.55;;;26.20;56.20;;;;;;350865;28;964;-56
2023/09/07 00:08:26;;;;;;;17.45;7.57;;;26.20;56.30;;;;;;350920;28;1760;-56
2023/09/07 00:08:37;;;;;;;21.95;7.80;;;26.20;56.30;;;;;;350977;28;1111;-56
2023/09/07 00:08:47;;;;;;;22.27;7.80;;;26.20;56.40;;;;;;350926;28;1424;-56
2023/09/07 00:08:58;;;;;;;23.33;7.70;;;26.20;56.40;;;;;;351019;28;1965;-55
2023/09/07 00:09:11;;;;;;;18.43;7.27;;;26.20;56.40;;;;;;350941;28;1615;-55
2023/09/07 00:09:23;;;;;;;18.73;7.43;;;26.20;56.40;;;;;;350926;28;1098;-56
2023/09/07 00:09:34;;;;;;;16.17;7.57;;;26.20;56.20;;;;;;351031;28;1034;-55
2023/09/07 00:09:45;;;;;;;20.08;8.38;;;26.20;56.10;;;;;;350980;28;1099;-56
2023/09/07 00:09:56;;;;;;;21.35;8.77;;;26.20;56.10;;;;;;351010;28;1073;-55
2023/09/07 00:10:07;;;;;;;22.02;9.02;;;26.20;56.10;;;;;;350928;28;1036;-56
2023/09/07 00:10:18;;;;;;;18.20;8.07;;;26.20;56.10;;;;;;350948;28;1114;-56
2023/09/07 00:10:29;;;;;;;19.57;8.70;;;26.20;56.00;;;;;;351029;28;978;-56
2023/09/07 00:10:39;;;;;;;20.58;9.23;;;26.20;56.00;;;;;;351072;28;991;-55
2023/09/07 00:10:50;;;;;;;21.92;9.80;;;26.20;56.00;;;;;;351045;28;832;-55
2023/09/07 00:11:05;;;;;;;20.42;9.85;;;26.20;56.00;;;;;;350975;28;1016;-55
2023/09/07 00:11:16;;;;;;;21.83;9.70;;;26.20;55.90;;;;;;350997;28;919;-55
2023/09/07 00:11:27;;;;;;;24.20;9.60;;;26.20;56.00;;;;;;351072;28;817;-56
2023/09/07 00:11:38;;;;;;;23.93;8.90;;;26.20;56.10;;;;;;351008;28;976;-55
2023/09/07 00:11:49;;;;;;;25.00;8.18;;;26.20;56.10;;;;;;350942;28;1059;-57
2023/09/07 00:12:00;;;;;;;21.08;7.88;;;26.10;56.20;;;;;;351008;28;1098;-56
2023/09/07 00:12:10;;;;;;;19.38;8.13;;;26.20;56.10;;;;;;351032;28;2297;-56
2023/09/07 00:12:21;;;;;;;16.88;8.18;;;26.20;56.00;;;;;;350970;28;1312;-55
2023/09/07 00:12:32;;;;;;;21.33;8.13;;;26.10;56.00;;;;;;351023;28;1149;-56
2023/09/07 00:12:44;;;;;;;20.52;7.32;;;26.20;56.00;;;;;;350945;28;1902;-56
2023/09/07 00:12:54;;;;;;;18.05;7.07;;;26.20;56.00;;;;;;351036;28;1094;-57
2023/09/07 00:13:05;;;;;;;16.35;7.18;;;26.20;55.70;;;;;;350993;28;1075;-56
2023/09/07 00:13:16;;;;;;;17.02;7.25;;;26.20;55.80;;;;;;350964;28;1154;-55
2023/09/07 00:13:27;;;;;;;20.42;7.45;;;26.20;55.90;;;;;;350920;28;1903;-56
2023/09/07 00:13:38;;;;;;;20.42;7.40;;;26.10;55.90;;;;;;350948;28;1332;-56
2023/09/07 00:13:50;;;;;;;19.58;7.40;;;26.20;56.00;;;;;;351055;28;1807;-56
2023/09/07 00:14:01;;;;;;;17.10;7.32;;;26.20;56.00;;;;;;351067;28;1008;-56
2023/09/07 00:14:11;;;;;;;18.57;7.60;;;26.20;56.00;;;;;;350960;28;1453;-56
2023/09/07 00:14:22;;;;;;;19.58;7.72;;;26.20;56.00;;;;;;351029;28;1003;-55
2023/09/07 00:14:33;;;;;;;18.73;7.22;;;26.20;56.00;;;;;;350889;28;1055;-56
2023/09/07 00:14:45;;;;;;;17.85;7.03;;;26.20;55.90;;;;;;351002;28;1457;-56
2023/09/07 00:14:56;;;;;;;19.27;7.07;;;26.20;55.90;;;;;;351010;28;975;-56
2023/09/07 00:15:08;;;;;;;22.10;7.20;;;26.20;56.00;;;;;;351013;28;904;-56
2023/09/07 00:15:20;;;;;;;24.20;7.43;;;26.20;55.90;;;;;;351028;28;919;-55
2023/09/07 00:15:37;;;;;;;21.70;7.75;;;26.20;55.90;;;;;;350879;28;955;-56
2023/09/07 00:15:47;;;;;;;18.08;7.43;;;26.20;55.90;;;;;;350975;28;1099;-56
2023/09/07 00:16:00;;;;;;;18.40;7.10;;;26.20;56.00;;;;;;351035;28;1050;-56
2023/09/07 00:16:11;;;;;;;16.15;7.03;;;26.20;56.00;;;;;;351034;28;1054;-55
2023/09/07 00:16:22;;;;;;;18.05;7.10;;;26.20;56.00;;;;;;350906;28;1008;-56
2023/09/07 00:16:35;;;;;;;17.40;7.22;;;26.20;56.00;;;;;;351050;28;813;-55
2023/09/07 00:16:46;;;;;;;16.25;7.03;;;26.20;55.90;;;;;;350970;28;1122;-55
2023/09/07 00:16:57;;;;;;;18.00;6.85;;;26.20;55.90;;;;;;351001;28;976;-56
2023/09/07 00:17:07;;;;;;;17.67;6.57;;;26.20;56.00;;;;;;350984;28;1220;-55
2023/09/07 00:17:18;;;;;;;18.43;6.60;;;26.20;55.90;;;;;;350910;28;1568;-55
2023/09/07 00:17:29;;;;;;;19.55;6.68;;;26.20;55.90;;;;;;350933;28;1641;-55
2023/09/07 00:17:40;;;;;;;19.17;6.57;;;26.20;55.90;;;;;;351012;28;1147;-55
2023/09/07 00:17:51;;;;;;;17.98;6.88;;;26.20;55.80;;;;;;350991;28;1269;-57
2023/09/07 00:18:02;;;;;;;16.40;7.20;;;26.20;55.90;;;;;;351018;28;1150;-56
2023/09/07 00:18:12;;;;;;;17.48;7.32;;;26.20;55.90;;;;;;350935;28;1856;-56
2023/09/07 00:18:23;;;;;;;17.92;7.20;;;26.20;55.90;;;;;;351041;28;816;-54
2023/09/07 00:18:34;;;;;;;20.43;7.60;;;26.20;55.90;;;;;;351095;28;817;-56
2023/09/07 00:18:44;;;;;;;22.60;7.75;;;26.20;55.90;;;;;;351031;28;848;-57
2023/09/07 00:18:55;;;;;;;21.83;7.50;;;26.20;55.80;;;;;;350976;28;1158;-55
2023/09/07 00:19:06;;;;;;;18.20;6.93;;;26.20;55.70;;;;;;350891;28;1181;-55
2023/09/07 00:19:17;;;;;;;18.35;6.93;;;26.20;55.70;;;;;;351041;28;848;-56
2023/09/07 00:19:29;;;;;;;18.27;6.82;;;26.20;55.70;;;;;;351068;28;833;-55
2023/09/07 00:19:40;;;;;;;17.58;6.65;;;26.20;55.70;;;;;;351026;28;1003;-56
2023/09/07 00:19:52;;;;;;;21.45;6.60;;;26.20;55.70;;;;;;351033;28;980;-55
2023/09/07 00:20:16;;;;;;;22.23;7.07;;;26.20;55.70;;;;;;350888;28;1365;-56
2023/09/07 00:20:26;;;;;;;21.13;7.80;;;26.20;55.70;;;;;;351013;28;881;-56
2023/09/07 00:20:37;;;;;;;22.15;7.35;;;26.20;55.70;;;;;;351016;28;1023;-56
2023/09/07 00:20:49;;;;;;;21.42;7.03;;;26.20;55.60;;;;;;350886;28;1214;-55
2023/09/07 00:21:00;;;;;;;18.55;6.93;;;26.20;55.60;;;;;;350978;28;1286;-57
2023/09/07 00:21:11;;;;;;;19.95;6.82;;;26.10;55.60;;;;;;351002;28;992;-55
2023/09/07 00:21:22;;;;;;;23.83;7.20;;;26.20;55.40;;;;;;351019;28;912;-55
2023/09/07 00:21:32;;;;;;;25.23;7.30;;;26.20;55.40;;;;;;350938;28;1581;-55
2023/09/07 00:21:43;;;;;;;22.58;7.32;;;26.20;55.40;;;;;;350988;28;1011;-55
2023/09/07 00:21:54;;;;;;;19.40;7.05;;;26.20;55.30;;;;;;350984;28;1095;-55
2023/09/07 00:22:05;;;;;;;18.67;6.77;;;26.20;55.40;;;;;;350972;28;1190;-55
2023/09/07 00:22:16;;;;;;;18.88;6.82;;;26.20;55.50;;;;;;350867;28;1351;-56
2023/09/07 00:22:27;;;;;;;19.50;6.86;;;26.20;55.50;;;;;;350979;28;1111;-56
2023/09/07 00:22:38;;;;;;;19.87;6.77;;;26.10;55.50;;;;;;351051;28;1014;-55
2023/09/07 00:22:49;;;;;;;21.55;6.35;;;26.20;55.50;;;;;;351054;28;853;-56
2023/09/07 00:23:00;;;;;;;21.63;6.65;;;26.20;55.50;;;;;;350869;28;1118;-54
2023/09/07 00:23:11;;;;;;;21.63;6.88;;;26.20;55.50;;;;;;351033;28;936;-55
2023/09/07 00:23:22;;;;;;;20.85;6.78;;;26.20;55.50;;;;;;350999;28;1189;-56
2023/09/07 00:23:33;;;;;;;19.65;6.65;;;26.20;55.50;;;;;;351053;28;860;-55
2023/09/07 00:23:44;;;;;;;20.85;6.90;;;26.20;55.40;;;;;;350833;28;1553;-55
2023/09/07 00:23:55;;;;;;;20.27;7.00;;;26.20;55.30;;;;;;350955;28;1102;-55
2023/09/07 00:24:06;;;;;;;18.80;6.78;;;26.20;55.40;;;;;;351050;28;1162;-58
2023/09/07 00:24:17;;;;;;;17.40;6.85;;;26.20;55.50;;;;;;350976;28;1192;-55
2023/09/07 00:24:28;;;;;;;16.83;6.70;;;26.20;55.60;;;;;;350994;28;960;-55
2023/09/07 00:24:39;;;;;;;17.83;6.35;;;26.20;55.50;;;;;;350939;28;1441;-56
2023/09/07 00:24:49;;;;;;;20.00;6.43;;;26.20;55.50;;;;;;351028;28;1012;-55
2023/09/07 00:25:00;;;;;;;21.83;6.60;;;26.20;55.40;;;;;;351049;28;883;-56
2023/09/07 00:25:11;;;;;;;20.95;6.75;;;26.20;55.40;;;;;;350998;28;1450;-55
2023/09/07 00:25:22;;;;;;;20.90;6.82;;;26.10;55.40;;;;;;350999;28;972;-56
2023/09/07 00:25:33;;;;;;;20.58;6.63;;;26.20;55.40;;;;;;350806;28;1235;-56
2023/09/07 00:25:43;;;;;;;23.02;6.43;;;26.20;55.50;;;;;;350850;28;1450;-56
2023/09/07 00:25:54;;;;;;;20.00;6.40;;;26.20;55.50;;;;;;350901;28;1035;-56
2023/09/07 00:26:05;;;;;;;19.85;6.63;;;26.20;55.50;;;;;;350967;28;809;-55
2023/09/07 00:26:16;;;;;;;19.20;6.68;;;26.10;55.50;;;;;;350924;28;915;-55
2023/09/07 00:26:26;;;;;;;21.88;6.72;;;26.10;55.50;;;;;;350870;28;893;-56
2023/09/07 00:26:37;;;;;;;22.47;7.03;;;26.20;55.50;;;;;;350953;28;1331;-56
2023/09/07 00:26:48;;;;;;;22.83;6.90;;;26.20;55.50;;;;;;350921;28;892;-55
2023/09/07 00:26:59;;;;;;;21.05;6.63;;;26.20;55.60;;;;;;350853;28;1450;-56
2023/09/07 00:27:11;;;;;;;19.67;6.00;;;26.20;55.50;;;;;;350881;28;1038;-56
2023/09/07 00:27:22;;;;;;;19.70;6.32;;;26.20;55.50;;;;;;350802;28;972;-55
2023/09/07 00:27:34;;;;;;;18.15;6.43;;;26.20;55.50;;;;;;351028;28;1756;-56
2023/09/07 00:27:44;;;;;;;17.33;6.55;;;26.20;55.50;;;;;;351063;28;900;-56
2023/09/07 00:27:55;;;;;;;18.73;6.40;;;26.10;55.40;;;;;;351019;28;1813;-55
2023/09/07 00:28:06;;;;;;;20.90;6.38;;;26.20;55.40;;;;;;351024;28;1199;-56
2023/09/07 00:28:17;;;;;;;21.40;6.33;;;26.10;55.50;;;;;;350918;28;1031;-55
2023/09/07 00:28:28;;;;;;;22.52;6.18;;;26.10;55.50;;;;;;351031;28;1102;-56
2023/09/07 00:28:39;;;;;;;20.52;6.20;;;26.20;55.50;;;;;;350979;28;1056;-55
2023/09/07 00:28:49;;;;;;;22.38;6.70;;;26.20;55.50;;;;;;351008;28;976;-55
2023/09/07 00:29:00;;;;;;;20.73;7.40;;;26.10;55.40;;;;;;350951;28;1164;-57
2023/09/07 00:29:11;;;;;;;24.58;7.60;;;26.10;55.40;;;;;;350912;28;1018;-55
2023/09/07 00:29:22;;;;;;;23.67;7.75;;;26.10;55.40;;;;;;350981;28;916;-55
2023/09/07 00:29:35;;;;;;;23.17;7.20;;;26.10;55.40;;;;;;351019;28;1891;-55
2023/09/07 00:29:46;;;;;;;18.63;6.68;;;26.20;55.40;;;;;;350945;28;1372;-55
2023/09/07 00:29:57;;;;;;;16.13;6.10;;;26.10;55.40;;;;;;351007;28;964;-55
2023/09/07 00:30:09;;;;;;;16.03;6.40;;;26.20;55.40;;;;;;350875;28;1537;-55
2023/09/07 00:30:20;;;;;;;15.40;6.55;;;26.20;55.40;;;;;;350937;28;1446;-56
2023/09/07 00:30:30;;;;;;;15.93;6.40;;;26.20;55.50;;;;;;350972;28;1091;-55
2023/09/07 00:30:41;;;;;;;16.30;6.38;;;26.20;55.50;;;;;;350986;28;1238;-55
2023/09/07 00:30:52;;;;;;;17.92;6.70;;;26.20;55.50;;;;;;350974;28;1827;-55
2023/09/07 00:31:03;;;;;;;17.67;7.00;;;26.20;55.50;;;;;;351056;28;888;-56
2023/09/07 00:31:14;;;;;;;19.42;6.75;;;26.20;55.50;;;;;;350895;28;1874;-56
2023/09/07 00:31:25;;;;;;;20.30;6.72;;;26.20;55.50;;;;;;351014;28;963;-56
2023/09/07 00:31:35;;;;;;;21.23;6.77;;;26.20;55.60;;;;;;351029;28;1019;-56
2023/09/07 00:31:46;;;;;;;21.27;7.15;;;26.20;55.50;;;;;;350884;28;1178;-56
2023/09/07 00:31:57;;;;;;;19.45;6.82;;;26.10;55.50;;;;;;351258;28;856;-56
2023/09/07 00:32:08;;;;;;;17.15;6.72;;;26.20;55.50;;;;;;351267;28;904;-55
2023/09/07 00:32:19;;;;;;;15.98;6.63;;;26.10;55.50;;;;;;351146;28;1035;-55
2023/09/07 00:32:33;;;;;;;18.20;7.20;;;26.20;55.60;;;;;;351093;28;1890;-55
2023/09/07 00:32:43;;;;;;;21.48;7.25;;;26.10;55.60;;;;;;351274;28;1042;-55
2023/09/07 00:32:54;;;;;;;20.30;6.97;;;26.20;55.60;;;;;;351214;28;1048;-54
2023/09/07 00:33:05;;;;;;;17.55;6.55;;;26.10;55.60;;;;;;351238;28;1083;-55
2023/09/07 00:33:16;;;;;;;15.95;6.88;;;26.20;55.60;;;;;;351242;28;824;-55
2023/09/07 00:33:26;;;;;;;16.57;6.97;;;26.10;55.70;;;;;;351170;28;1292;-56
2023/09/07 00:33:37;;;;;;;16.60;7.00;;;26.20;55.80;;;;;;351240;28;1973;-55
2023/09/07 00:33:48;;;;;;;16.73;6.68;;;26.20;55.80;;;;;;351242;28;1074;-55
2023/09/07 00:33:58;;;;;;;17.45;6.40;;;26.20;55.80;;;;;;351234;28;885;-56
2023/09/07 00:34:09;;;;;;;17.67;6.67;;;26.10;55.80;;;;;;351213;28;1555;-55
2023/09/07 00:34:20;;;;;;;17.73;6.20;;;26.10;55.70;;;;;;351228;28;960;-55
2023/09/07 00:34:31;;;;;;;17.42;6.30;;;26.10;55.70;;;;;;351327;28;817;-55
2023/09/07 00:34:41;;;;;;;20.90;6.53;;;26.10;55.70;;;;;;351230;28;988;-56
2023/09/07 00:34:52;;;;;;;22.37;6.70;;;26.10;55.70;;;;;;351288;28;900;-56
2023/09/07 00:35:04;;;;;;;24.58;7.25;;;26.20;55.70;;;;;;351279;28;1039;-56
2023/09/07 00:35:14;;;;;;;21.38;6.90;;;26.10;55.70;;;;;;351307;28;896;-55
2023/09/07 00:35:25;;;;;;;20.23;6.80;;;26.20;55.70;;;;;;351168;28;1282;-56
2023/09/07 00:35:36;;;;;;;17.10;6.13;;;26.10;55.70;;;;;;351284;28;832;-55
2023/09/07 00:35:47;;;;;;;15.35;6.10;;;26.10;55.70;;;;;;351239;28;1095;-56
2023/09/07 00:35:58;;;;;;;16.40;5.93;;;26.20;55.70;;;;;;351227;28;1297;-55
2023/09/07 00:36:08;;;;;;;17.10;6.30;;;26.20;55.70;;;;;;351215;28;1008;-56
2023/09/07 00:36:19;;;;;;;16.53;6.53;;;26.20;55.70;;;;;;351261;28;1047;-55
2023/09/07 00:36:30;;;;;;;15.37;6.50;;;26.20;55.70;;;;;;351226;28;1395;-55
2023/09/07 00:36:40;;;;;;;15.55;6.50;;;26.20;55.70;;;;;;351252;28;1011;-56
2023/09/07 00:36:51;;;;;;;16.42;6.20;;;26.10;55.60;;;;;;351132;28;1552;-55
2023/09/07 00:37:02;;;;;;;17.17;6.33;;;26.20;55.60;;;;;;351252;28;908;-55
2023/09/07 00:37:13;;;;;;;17.27;6.18;;;26.20;55.50;;;;;;351283;28;849;-55
2023/09/07 00:37:23;;;;;;;17.00;6.13;;;26.20;55.50;;;;;;351248;28;1746;-55
2023/09/07 00:37:34;;;;;;;17.55;6.50;;;26.20;55.50;;;;;;351162;28;1055;-56
2023/09/07 00:37:45;;;;;;;18.07;6.40;;;26.20;55.50;;;;;;351265;28;944;-55
2023/09/07 00:37:56;;;;;;;18.17;6.15;;;26.20;55.50;;;;;;351261;28;1102;-55
2023/09/07 00:38:07;;;;;;;17.90;6.10;;;26.20;55.50;;;;;;351300;28;903;-55
2023/09/07 00:38:18;;;;;;;20.92;6.75;;;26.10;55.60;;;;;;351099;28;1484;-55
2023/09/07 00:38:29;;;;;;;20.92;6.72;;;26.20;55.60;;;;;;351284;28;1007;-55
2023/09/07 00:38:41;;;;;;;21.60;6.65;;;26.20;55.60;;;;;;351227;28;999;-55
2023/09/07 00:38:52;;;;;;;20.65;6.22;;;26.20;55.60;;;;;;351279;28;989;-55
2023/09/07 00:39:02;;;;;;;22.45;6.30;;;26.20;55.70;;;;;;351207;28;981;-56
2023/09/07 00:39:13;;;;;;;20.98;6.50;;;26.20;55.60;;;;;;351311;28;987;-55
2023/09/07 00:39:24;;;;;;;21.42;6.88;;;26.10;55.60;;;;;;351228;28;1106;-56
2023/09/07 00:39:35;;;;;;;19.87;6.50;;;26.20;55.60;;;;;;351240;28;1243;-56
2023/09/07 00:39:45;;;;;;;20.05;6.20;;;26.10;55.70;;;;;;351153;28;1375;-55
2023/09/07 00:39:56;;;;;;;18.92;6.18;;;26.10;55.70;;;;;;351315;28;821;-56
2023/09/07 00:40:08;;;;;;;18.42;6.10;;;26.20;55.80;;;;;;351233;28;1669;-55
2023/09/07 00:40:19;;;;;;;22.02;6.07;;;26.10;55.80;;;;;;351205;28;975;-55
2023/09/07 00:40:30;;;;;;;20.73;5.97;;;26.10;55.80;;;;;;351298;28;853;-56
2023/09/07 00:40:47;;;;;;;19.40;6.25;;;26.10;55.80;;;;;;351072;28;1091;-56
2023/09/07 00:40:58;;;;;;;20.00;6.53;;;26.10;55.80;;;;;;351098;28;1234;-56
2023/09/07 00:41:09;;;;;;;20.92;6.60;;;26.20;55.80;;;;;;351059;28;1386;-56
2023/09/07 00:41:20;;;;;;;20.27;6.45;;;26.10;55.80;;;;;;351095;28;2472;-56
2023/09/07 00:41:30;;;;;;;21.37;6.73;;;26.10;55.80;;;;;;351136;28;1030;-56
2023/09/07 00:41:41;;;;;;;20.20;6.65;;;26.10;55.90;;;;;;351097;28;1014;-56
2023/09/07 00:41:52;;;;;;;19.10;6.40;;;26.10;55.80;;;;;;351144;28;1082;-56
2023/09/07 00:42:03;;;;;;;18.27;6.03;;;26.20;55.90;;;;;;351194;28;994;-57
2023/09/07 00:42:14;;;;;;;20.00;5.85;;;26.10;55.90;;;;;;351072;28;962;-56
2023/09/07 00:42:24;;;;;;;21.33;6.07;;;26.10;55.90;;;;;;351128;28;939;-57
2023/09/07 00:42:36;;;;;;;18.85;6.05;;;26.10;55.80;;;;;;351191;28;895;-54
2023/09/07 00:42:47;;;;;;;16.35;5.90;;;26.10;55.90;;;;;;351188;28;1000;-56
2023/09/07 00:42:58;;;;;;;18.42;6.10;;;26.10;55.90;;;;;;351320;28;1011;-55
2023/09/07 00:43:09;;;;;;;20.45;6.55;;;26.10;55.90;;;;;;351201;28;1065;-56
2023/09/07 00:43:20;;;;;;;22.80;6.78;;;26.10;55.90;;;;;;351251;28;864;-55
2023/09/07 00:43:31;;;;;;;20.58;6.47;;;26.10;55.80;;;;;;351173;28;1626;-56
2023/09/07 00:43:41;;;;;;;20.03;5.87;;;26.10;55.80;;;;;;351170;28;909;-55
2023/09/07 00:43:52;;;;;;;18.25;5.93;;;26.20;55.80;;;;;;351292;28;928;-55
2023/09/07 00:44:03;;;;;;;17.55;5.97;;;26.20;55.80;;;;;;351291;28;849;-56
2023/09/07 00:44:14;;;;;;;15.68;5.97;;;26.20;55.80;;;;;;351173;28;1035;-56
2023/09/07 00:44:24;;;;;;;16.10;5.88;;;26.10;55.70;;;;;;351221;28;1153;-55
2023/09/07 00:44:35;;;;;;;17.57;6.07;;;26.10;55.70;;;;;;351261;28;1011;-55
2023/09/07 00:44:47;;;;;;;19.55;6.20;;;26.20;55.80;;;;;;351152;28;1114;-56
2023/09/07 00:44:58;;;;;;;21.10;6.38;;;26.10;55.80;;;;;;351284;28;856;-56
2023/09/07 00:45:09;;;;;;;22.20;6.60;;;26.10;55.80;;;;;;351236;28;967;-55
2023/09/07 00:45:20;;;;;;;19.25;6.38;;;26.10;55.80;;;;;;351204;28;983;-56
2023/09/07 00:45:31;;;;;;;18.58;6.28;;;26.10;55.90;;;;;;351241;28;1114;-55
2023/09/07 00:45:42;;;;;;;16.08;5.88;;;26.10;55.90;;;;;;351218;28;1037;-56
2023/09/07 00:45:52;;;;;;;18.23;5.90;;;26.10;55.90;;;;;;351256;28;881;-56
2023/09/07 00:46:03;;;;;;;18.52;5.78;;;26.10;55.90;;;;;;351244;28;1102;-55
2023/09/07 00:46:15;;;;;;;20.50;6.20;;;26.10;55.90;;;;;;351134;28;1161;-55
2023/09/07 00:46:26;;;;;;;20.90;6.32;;;26.10;55.90;;;;;;351239;28;1003;-56
2023/09/07 00:46:37;;;;;;;20.45;6.57;;;26.10;55.90;;;;;;351132;28;1664;-55
2023/09/07 00:46:48;;;;;;;18.02;6.43;;;26.10;56.00;;;;;;351276;28;923;-56
2023/09/07 00:46:59;;;;;;;18.98;6.07;;;26.20;56.00;;;;;;351214;28;1617;-55
2023/09/07 00:47:10;;;;;;;18.35;5.90;;;26.10;56.00;;;;;;351167;28;1802;-56
2023/09/07 00:47:22;;;;;;;19.08;6.00;;;26.10;56.00;;;;;;351150;28;1453;-56
2023/09/07 00:47:37;;;;;;;18.88;6.10;;;26.10;56.00;;;;;;351184;28;945;-56
2023/09/07 00:47:47;;;;;;;19.77;6.47;;;26.10;56.00;;;;;;351231;28;1074;-56
2023/09/07 00:47:58;;;;;;;17.55;6.28;;;26.10;56.00;;;;;;351216;28;1012;-56
2023/09/07 00:48:11;;;;;;;16.08;5.88;;;26.10;56.00;;;;;;351253;28;1003;-56
2023/09/07 00:48:22;;;;;;;19.52;6.25;;;26.10;56.00;;;;;;351101;28;983;-56
2023/09/07 00:48:33;;;;;;;22.48;6.75;;;26.10;55.80;;;;;;351089;28;1396;-56
2023/09/07 00:48:44;;;;;;;22.90;7.40;;;26.10;56.00;;;;;;351152;28;975;-56
2023/09/07 00:48:56;;;;;;;18.80;6.93;;;26.10;56.00;;;;;;351033;28;1412;-56
2023/09/07 00:49:07;;;;;;;16.08;6.63;;;26.10;56.10;;;;;;351102;28;1245;-55
2023/09/07 00:49:18;;;;;;;16.52;6.43;;;26.10;56.00;;;;;;351041;28;1038;-56
2023/09/07 00:49:29;;;;;;;18.00;6.37;;;26.10;56.10;;;;;;351174;28;841;-56
2023/09/07 00:49:40;;;;;;;18.95;6.75;;;26.10;56.00;;;;;;351159;28;1027;-56
2023/09/07 00:49:50;;;;;;;20.73;6.70;;;26.10;56.00;;;;;;351036;28;1576;-55
2023/09/07 00:50:02;;;;;;;24.30;6.82;;;26.10;56.00;;;;;;351161;28;1007;-56
2023/09/07 00:50:14;;;;;;;22.40;6.82;;;26.10;56.10;;;;;;351164;28;1019;-55
2023/09/07 00:50:25;;;;;;;20.35;6.80;;;26.10;56.00;;;;;;351181;28;1027;-55
2023/09/07 00:50:35;;;;;;;19.33;6.60;;;26.10;56.00;;;;;;351254;28;1002;-55
2023/09/07 00:50:47;;;;;;;22.42;6.80;;;26.10;56.10;;;;;;351223;28;1585;-55
2023/09/07 00:50:57;;;;;;;20.63;6.60;;;26.10;56.20;;;;;;351182;28;1151;-55
2023/09/07 00:51:08;;;;;;;20.75;6.60;;;26.10;56.30;;;;;;351235;28;1565;-55
2023/09/07 00:51:19;;;;;;;19.02;6.63;;;26.10;56.30;;;;;;351150;28;1181;-57
2023/09/07 00:51:30;;;;;;;19.30;6.88;;;26.10;56.30;;;;;;351112;28;1106;-58
2023/09/07 00:51:41;;;;;;;20.05;7.07;;;26.10;56.30;;;;;;351295;28;821;-57
2023/09/07 00:51:52;;;;;;;19.60;6.78;;;26.10;56.40;;;;;;351195;28;1110;-56
2023/09/07 00:52:05;;;;;;;22.65;7.07;;;26.10;56.40;;;;;;351111;28;1389;-56
2023/09/07 00:52:17;;;;;;;21.45;6.65;;;26.10;56.40;;;;;;351261;28;1038;-56
2023/09/07 00:52:28;;;;;;;22.55;6.65;;;26.10;56.30;;;;;;351169;28;1066;-57
2023/09/07 00:52:39;;;;;;;22.53;7.13;;;26.10;56.30;;;;;;351247;28;1113;-55
2023/09/07 00:52:51;;;;;;;22.00;7.20;;;26.10;56.30;;;;;;351288;28;932;-55
2023/09/07 00:53:03;;;;;;;19.70;7.25;;;26.10;56.30;;;;;;351153;28;1090;-55
2023/09/07 00:53:14;;;;;;;18.88;6.88;;;26.10;56.30;;;;;;351247;28;960;-56
2023/09/07 00:53:27;;;;;;;16.95;6.32;;;26.10;56.30;;;;;;351252;28;1085;-56
2023/09/07 00:53:37;;;;;;;17.58;6.53;;;26.10;56.30;;;;;;351077;28;1990;-57
2023/09/07 00:53:49;;;;;;;19.30;6.67;;;26.10;56.30;;;;;;351208;28;1184;-56
2023/09/07 00:54:00;;;;;;;21.85;6.65;;;26.10;56.30;;;;;;351288;28;996;-55
2023/09/07 00:54:11;;;;;;;19.55;6.25;;;26.10;56.30;;;;;;351128;28;1212;-56
2023/09/07 00:54:22;;;;;;;19.00;6.15;;;26.10;56.10;;;;;;351264;28;967;-56
2023/09/07 00:54:34;;;;;;;20.90;6.53;;;26.10;56.20;;;;;;351188;28;1286;-56
2023/09/07 00:54:44;;;;;;;24.35;7.25;;;26.10;56.40;;;;;;351153;28;1010;-56
2023/09/07 00:54:55;;;;;;;25.00;7.20;;;26.10;56.40;;;;;;351166;28;2327;-56
2023/09/07 00:55:07;;;;;;;24.40;7.05;;;26.10;56.40;;;;;;351160;28;1558;-56
2023/09/07 00:55:18;;;;;;;23.25;6.72;;;26.10;56.40;;;;;;351200;28;1338;-55
2023/09/07 00:55:32;;;;;;;22.95;7.20;;;26.10;56.40;;;;;;351127;28;1114;-56
2023/09/07 00:55:44;;;;;;;22.67;6.78;;;26.10;56.40;;;;;;351206;28;956;-55
2023/09/07 00:55:56;;;;;;;20.38;6.55;;;26.10;56.40;;;;;;351154;28;1094;-55
2023/09/07 00:56:07;;;;;;;16.45;6.30;;;26.10;56.30;;;;;;351275;28;950;-56
2023/09/07 00:56:19;;;;;;;16.48;6.35;;;26.10;56.40;;;;;;351136;28;1011;-55
2023/09/07 00:56:30;;;;;;;18.67;6.65;;;26.10;56.40;;;;;;351219;28;1177;-57
2023/09/07 00:56:41;;;;;;;20.10;6.85;;;26.10;56.40;;;;;;351148;28;979;-56
2023/09/07 00:56:52;;;;;;;19.65;6.70;;;26.10;56.40;;;;;;351276;28;844;-56
2023/09/07 00:57:03;;;;;;;18.63;6.50;;;26.10;56.40;;;;;;351156;28;1038;-55
2023/09/07 00:57:13;;;;;;;17.83;6.35;;;26.10;56.40;;;;;;351271;28;991;-56
2023/09/07 00:57:25;;;;;;;17.17;6.22;;;26.10;56.40;;;;;;351201;28;999;-56
2023/09/07 00:57:39;;;;;;;17.35;6.22;;;26.10;56.30;;;;;;351205;28;908;-55
2023/09/07 00:57:50;;;;;;;16.42;6.38;;;26.10;56.40;;;;;;351222;28;983;-55
2023/09/07 00:58:04;;;;;;;17.50;7.00;;;26.10;56.40;;;;;;351162;28;1021;-55
2023/09/07 00:58:15;;;;;;;18.20;7.20;;;26.10;56.50;;;;;;351097;28;1102;-55
2023/09/07 00:58:26;;;;;;;18.55;7.00;;;26.10;56.50;;;;;;351081;28;1048;-54
2023/09/07 00:58:37;;;;;;;18.67;7.33;;;26.10;56.60;;;;;;351040;28;1579;-55
2023/09/07 00:58:49;;;;;;;17.95;7.10;;;26.10;56.60;;;;;;351014;28;1703;-55
2023/09/07 00:59:00;;;;;;;18.45;7.05;;;26.10;56.50;;;;;;351110;28;859;-55